• Join FlightAware (Why Join?)
  • Login
  • US Flag 
01:04PM EDT


 

Airport Tracker/Info


-or-


 

Live Flight TrackerFlight Track Log ✈ N534JB ✈ 20-Jun-2012 ✈ KJFK - KMCO

Flight Track Log - Related Links

Times and Time Zones

All times are in EDT time to prevent confusion due to time zone crossing. See the N534JB flight status page for this flight to view local times or setup timezone preferences in your user account.

Time Position Orientation Groundspeed Altitude Reporting Facility
EDT Latitude Longitude Course Direction KTS MPH feet Rate Location/Type
10:05AM 40.6167 -73.8667 128° Southeast 232 267 2,000  Level New York TRACON
10:08AM 40.5050 -73.6808 133° Southeast 296 341 9,000 2,520 Climbing New York Center
10:09AM 40.4525 -73.6075 143° Southeast 302 348 10,800 1,740 Climbing New York Center
10:10AM 40.3631 -73.5194 157° South 351 404 12,600 1,860 Climbing New York Center
10:11AM 40.2725 -73.4694 201° Southwest 398 458 14,600 1,980 Climbing New York Center
10:12AM 40.1025 -73.5544 206° Southwest 413 475 17,800 1,860 Climbing Washington Center
10:13AM 39.9972 -73.6225 208° Southwest 418 481 19,500 1,680 Climbing Washington Center
10:14AM 39.8900 -73.6958 207° Southwest 435 501 21,200 1,440 Climbing Washington Center
10:15AM 39.7789 -73.7692 207° Southwest 447 514 22,400 1,320 Climbing Washington Center
10:16AM 39.6653 -73.8447 209° Southwest 453 521 23,900 1,380 Climbing Washington Center
10:17AM 39.5539 -73.9256 207° Southwest 453 521 25,100 1,140 Climbing Washington Center
10:18AM 39.4258 -74.0092 218° Southwest 460 529 26,200 1,140 Climbing Washington Center
10:19AM 39.3231 -74.1133 220° Southwest 471 542 27,500 960 Climbing Washington Center
10:20AM 39.2200 -74.2253 221° Southwest 481 554 28,200 780 Climbing Washington Center
10:21AM 39.1172 -74.3394 219° Southwest 487 560 29,100 1,200 Climbing Washington Center
10:22AM 39.0119 -74.4508 221° Southwest 492 566 30,700 1,380 Climbing Washington Center
10:23AM 38.9089 -74.5672 219° Southwest 497 572 31,900 1,260 Climbing Washington Center
10:24AM 38.8075 -74.6725 220° Southwest 492 566 33,200 960 Climbing Washington Center
10:25AM 38.7083 -74.7803 220° Southwest 487 560 33,900 840 Climbing Washington Center
10:26AM 38.6047 -74.8903 220° Southwest 487 560 34,900 900 Climbing Washington Center
10:27AM 38.5031 -74.9975 219° Southwest 481 554 35,800 540 Climbing Washington Center
10:28AM 38.4036 -75.1017 219° Southwest 481 554 36,000 60 Climbing Washington Center
10:29AM 38.3017 -75.2081 221° Southwest 476 548 36,000  Level Washington Center
10:30AM 38.2019 -75.3194 219° Southwest 476 548 36,000  Level Washington Center
10:31AM 38.0981 -75.4281 213° Southwest 476 548 36,000 -60 Level Washington Center
10:32AM 37.9875 -75.5181 212° Southwest 481 554 35,900 -60 Descending Washington Center
10:33AM 37.8750 -75.6075 211° Southwest 481 554 35,900  Level Washington Center
10:34AM 37.7622 -75.6917 212° Southwest 481 554 36,000  Climbing Washington Center
10:35AM 37.6475 -75.7806 209° Southwest 481 554 36,000  Level Washington Center
10:36AM 37.5306 -75.8617 204° Southwest 481 554 36,000  Level Washington Center
10:37AM 37.4072 -75.9317 203° Southwest 487 560 36,000 -60 Level Washington Center
10:38AM 37.2839 -75.9964 203° Southwest 487 560 35,900  Descending Washington Center
10:39AM 37.1606 -76.0636 203° Southwest 487 560 36,000  Climbing Washington Center
10:40AM 37.0456 -76.1253 201° Southwest 487 560 36,000  Level Washington Center
10:41AM 36.9161 -76.1867 212° Southwest 497 572 36,000  Level Washington Center
10:42AM 36.8028 -76.2767 219° Southwest 497 572 36,000  Level Washington Center
10:43AM 36.6958 -76.3844 215° Southwest 497 572 36,000 -60 Level Washington Center
10:44AM 36.5889 -76.4792 216° Southwest 486 559 35,900 -60 Descending Washington Center
10:45AM 36.4817 -76.5761 215° Southwest 481 554 35,900  Level Washington Center
10:46AM 36.3722 -76.6728 216° Southwest 481 554 36,000  Climbing Washington Center
10:47AM 36.2650 -76.7692 216° Southwest 481 554 36,000 -60 Level Washington Center
10:48AM 36.1597 -76.8628 216° Southwest 481 554 35,900 -60 Descending Washington Center
10:49AM 36.0522 -76.9589 216° Southwest 481 554 35,900  Level Washington Center
10:50AM 35.9447 -77.0544 221° Southwest 481 554 36,000  Climbing Washington Center
10:51AM 35.8494 -77.1578 219° Southwest 474 545 36,000  Level Washington Center
10:52AM 35.7458 -77.2606 220° Southwest 474 545 36,000  Level Washington Center
10:53AM 35.6442 -77.3658 220° Southwest 474 545 36,000  Level Washington Center
10:54AM 35.5342 -77.4783 218° Southwest 479 551 36,000  Level Washington Center
10:55AM 35.4322 -77.5778 219° Southwest 474 545 36,000  Level Washington Center
10:56AM 35.3306 -77.6772 219° Southwest 480 552 36,000  Level Washington Center
10:57AM 35.2306 -77.7764 220° Southwest 475 547 36,000  Level Washington Center
10:58AM 35.1328 -77.8778 219° Southwest 480 552 36,000  Level Washington Center
10:59AM 35.0306 -77.9789 219° Southwest 472 543 36,000  Level Washington Center
11:00AM 34.9114 -78.0944 220° Southwest 475 547 36,000 -60 Level Washington Center
11:03AM 34.6822 -78.3306 219° Southwest 462 532 35,900  Descending Jacksonville Center
11:04AM 34.5856 -78.4264 219° Southwest 462 532 36,000  Climbing Jacksonville Center
11:05AM 34.4828 -78.5275 219° Southwest 475 547 36,000  Level Jacksonville Center
11:06AM 34.3839 -78.6256 219° Southwest 475 547 36,000  Level Jacksonville Center
11:07AM 34.2869 -78.7208 217° Southwest 470 541 36,000  Level Jacksonville Center
11:08AM 34.1836 -78.8161 220° Southwest 465 535 36,000 -60 Level Jacksonville Center
11:09AM 34.0886 -78.9108 219° Southwest 459 528 35,900 -60 Descending Jacksonville Center
11:10AM 33.9914 -79.0053 218° Southwest 459 528 35,900  Level Jacksonville Center
11:11AM 33.8919 -79.0997 218° Southwest 459 528 36,000  Climbing Jacksonville Center
11:12AM 33.7925 -79.1942 217° Southwest 459 528 36,000  Level Jacksonville Center
11:13AM 33.6931 -79.2856 218° Southwest 459 528 36,000  Level Jacksonville Center
11:14AM 33.5933 -79.3794 218° Southwest 454 522 36,000  Level Jacksonville Center
11:15AM 33.4939 -79.4731 218° Southwest 454 522 36,000  Level Jacksonville Center
11:16AM 33.3919 -79.5689 219° Southwest 459 528 36,000  Level Jacksonville Center
11:17AM 33.2922 -79.6647 219° Southwest 459 528 36,000  Level Jacksonville Center
11:18AM 33.1922 -79.7600 218° Southwest 459 528 36,000  Level Jacksonville Center
11:19AM 33.0922 -79.8528 217° Southwest 459 528 36,000  Level Jacksonville Center
11:20AM 32.9900 -79.9431 218° Southwest 459 528 36,000  Level Jacksonville Center
11:21AM 32.8981 -80.0275 213° Southwest 459 528 36,000 -60 Level Jacksonville Center
11:22AM 32.7894 -80.1128 212° Southwest 459 528 35,900  Descending Jacksonville Center
11:23AM 32.6806 -80.1950 212° Southwest 465 535 36,000  Climbing Jacksonville Center
11:24AM 32.5717 -80.2747 212° Southwest 465 535 36,000 -60 Level Jacksonville Center
11:25AM 32.4689 -80.3514 212° Southwest 459 528 35,900 -60 Descending Jacksonville Center
11:26AM 32.3597 -80.4308 211° Southwest 459 528 35,900  Level Jacksonville Center
11:27AM 32.2506 -80.5072 212° Southwest 459 528 36,000  Climbing Jacksonville Center
11:28AM 32.1433 -80.5861 213° Southwest 459 528 36,000  Level Jacksonville Center
11:29AM 32.0303 -80.6722 212° Southwest 459 528 36,000  Level Jacksonville Center
11:30AM 31.9231 -80.7508 211° Southwest 459 528 36,000  Level Jacksonville Center
11:31AM 31.8239 -80.8217 210° Southwest 459 528 36,000  Level Jacksonville Center
11:32AM 31.7019 -80.9050 212° Southwest 467 537 36,000  Level Jacksonville Center
11:33AM 31.5967 -80.9828 210° Southwest 467 537 36,000  Level Jacksonville Center
11:34AM 31.4975 -81.0506 188° South 462 532 36,000  Level Jacksonville Center
11:35AM 31.3600 -81.0728 185° South 452 520 36,000 -60 Level Jacksonville Center
11:36AM 31.2456 -81.0847 187° South 458 527 35,900  Descending Jacksonville Center
11:37AM 31.1203 -81.1017 184° South 458 527 36,000  Climbing Jacksonville Center
11:38AM 30.9953 -81.1114 186° South 458 527 36,000  Level Jacksonville Center
11:39AM 30.8703 -81.1258 185° South 458 527 36,000 -300 Level Jacksonville Center
11:40AM 30.7472 -81.1378 185° South 458 527 35,400 -960 Descending Jacksonville Center
11:41AM 30.6261 -81.1497 179° South 452 520 34,100 -1,080 Descending Jacksonville Center
11:42AM 30.5008 -81.1469 179° South 447 514 33,300 -1,920 Descending Jacksonville Center
11:43AM 30.3736 -81.1444 180° South 452 520 30,300 -2,400 Descending Jacksonville Center
11:44AM 30.2503 -81.1444 178° South 452 520 28,500 -1,620 Descending Jacksonville Center
11:45AM 30.1292 -81.1394 179° South 447 514 27,100 -1,500 Descending Jacksonville Center
11:46AM 30.0144 -81.1367 179° South 430 495 25,500 -1,620 Descending Jacksonville Center
11:47AM 29.8869 -81.1342 178° South 423 487 23,900 -1,560 Descending Jacksonville Center
11:48AM 29.7719 -81.1292 180° South 423 487 22,400 -1,500 Descending Jacksonville Center
11:49AM 29.6614 -81.1286 179° South 411 473 20,900 -1,500 Descending Jacksonville Center
11:50AM 29.5550 -81.1258 176° South 399 459 19,400 -1,440 Descending Jacksonville Center
11:51AM 29.4650 -81.1181 179° South 379 436 18,100 -1,380 Descending Jacksonville Center
11:52AM 29.3606 -81.1150 180° South 373 429 16,700 7,920 Descending Jacksonville Center
11:53AM 29.2583 -81.1144 173° South 373 429 34,000 -1,380 Climbing Jacksonville Center
11:54AM 29.1581 -81.0997 178° South 366 421 14,000 -10,740 Descending Jacksonville Center
11:55AM 29.0619 -81.0967 172° South 366 421 12,600 -1,440 Descending Jacksonville Center
11:56AM 28.9739 -81.0817 172° South 346 398 11,200 -1,800 Descending Jacksonville Center
11:57AM 28.8944 -81.0689 174° South 315 362 9,100 -1,860 Descending Jacksonville Center
11:58AM 28.8150 -81.0586 214° Southwest 297 342 7,500 -1,260 Descending Jacksonville Center
11:59AM 28.7656 -81.0972 238° Southwest 230 265 6,600 -780 Descending Jacksonville Center
12:00PM 28.7308 -81.1594 227° Southwest 212 244 6,000 -960 Descending Jacksonville Center
12:01PM 28.6858 -81.2147 217° Southwest 226 260 4,700 -1,500 Descending Jacksonville Center
12:02PM 28.6361 -81.2581 198° South 231 266 3,100 -1,140 Descending Jacksonville Center
12:03PM 28.5667 -81.2833 180° South 203 234 2,200 -840 Descending Orlando TRACON
12:04PM 28.5000 -81.2833 180° South 178 205 1,300 -840 Descending Orlando TRACON
12:05PM 28.4667 -81.2833 173° South 144 166 600 -720 Descending Orlando TRACON
12:12PM 27.5503 -81.1534 353° North  Level FlightAware Approximate
12:13PM 27.6731 -81.1707 353° North  Level FlightAware Approximate
12:14PM 27.7958 -81.1880 353° North  Level FlightAware Approximate
12:15PM 27.9185 -81.2053 353° North  Level FlightAware Approximate